LFBO 181530Z AUTO 26013KT 9999 FEW049 BKN056 BKN074 26/14 Q1016 TEMPO 4000 SHRA SCT035 SCT040TCU

ElémentsDécodage
LFBO Station météo située sur l'aérodrome de TOULOUSE Blagnac
181530Z émis le 18 du mois à 15h30 UTC
AUTO Bulletin édité par un automate
26013KT vent du 260°, 13 noeuds
9999 visibilité horizontale supérieure à 10 Km
FEW049 nuages rares (1/8 à 2/8) à 4900 pieds
BKN056 nuages morcelés (5/8 à 7/8) à 5600 pieds
BKN074 nuages morcelés (5/8 à 7/8) à 7400 pieds
26/14 température 26°C, point de rosée 14°C
 soit une humidité relative de 48%
Q1016 la pression au niveau de la mer (QNH) est de 1016 hPa
TEMPO fluctuation temporaire prévue
4000 visibilité horizontale de 4000 mètres
SHRA averse(s) de pluie
SCT035 nuages épars (3/8 à 4/8) à 3500 pieds
SCT040TCU nuages épars (3/8 à 4/8) à 4000 pieds
 présence de cumulus congestus